createdAt,value
2018-01-13T00:01:51.550Z,4.10
2018-01-13T00:04:19.020Z,4.10
2018-01-13T00:06:46.500Z,4.10
2018-01-13T00:09:14.741Z,4.10
2018-01-13T00:11:42.217Z,4.10
2018-01-13T00:14:09.700Z,4.10
2018-01-13T00:16:37.193Z,4.20
2018-01-13T00:19:04.664Z,4.10
2018-01-13T00:21:32.190Z,4.20
2018-01-13T00:23:59.661Z,4.20
2018-01-13T00:26:27.152Z,4.20
2018-01-13T00:28:54.672Z,4.20
2018-01-13T00:31:22.149Z,4.30
2018-01-13T00:33:49.657Z,4.40
2018-01-13T00:36:17.919Z,4.30
2018-01-13T00:38:45.406Z,4.30
2018-01-13T00:41:12.875Z,4.30
2018-01-13T00:43:40.373Z,4.30
2018-01-13T00:46:07.839Z,4.30
2018-01-13T00:48:35.313Z,4.30
2018-01-13T00:51:02.807Z,4.20
2018-01-13T00:53:30.276Z,4.30
2018-01-13T00:55:57.769Z,4.30
2018-01-13T00:58:25.240Z,4.30
2018-01-13T01:00:52.723Z,4.30
2018-01-13T01:03:20.965Z,4.20
2018-01-13T01:05:48.440Z,4.20
2018-01-13T01:08:15.918Z,4.20
2018-01-13T01:10:44.186Z,4.30
2018-01-13T01:13:12.425Z,4.30
2018-01-13T01:15:39.899Z,4.30
2018-01-13T01:18:07.373Z,4.30
2018-01-13T01:20:35.609Z,4.30
2018-01-13T01:23:03.082Z,4.30
2018-01-13T01:25:30.548Z,4.30
2018-01-13T01:27:58.025Z,4.30
2018-01-13T01:30:26.256Z,4.40
2018-01-13T01:32:53.740Z,4.30
2018-01-13T01:35:21.211Z,4.40
2018-01-13T01:37:48.698Z,4.40
2018-01-13T01:40:16.195Z,4.40
2018-01-13T01:42:43.664Z,4.40
2018-01-13T01:45:11.140Z,4.40
2018-01-13T01:47:38.620Z,4.40
2018-01-13T01:50:06.865Z,4.40
2018-01-13T01:52:34.328Z,4.40
2018-01-13T01:55:01.823Z,4.50
2018-01-13T01:57:29.293Z,4.40
2018-01-13T01:59:56.773Z,4.40
2018-01-13T02:02:24.259Z,4.40
2018-01-13T02:04:51.753Z,4.50
2018-01-13T02:07:19.236Z,4.50
2018-01-13T02:09:46.713Z,4.50
2018-01-13T02:12:14.461Z,4.50
2018-01-13T02:14:41.929Z,4.50
2018-01-13T02:17:09.406Z,4.50
2018-01-13T02:19:36.879Z,4.50
2018-01-13T02:22:04.353Z,4.60
2018-01-13T02:24:32.596Z,4.60
2018-01-13T02:27:00.077Z,4.60
2018-01-13T02:29:27.545Z,4.70
2018-01-13T02:31:55.776Z,4.60
2018-01-13T02:34:23.526Z,4.60
2018-01-13T02:36:51.000Z,4.60
2018-01-13T02:39:18.484Z,4.60
2018-01-13T02:41:45.953Z,4.60
2018-01-13T02:44:13.424Z,4.60
2018-01-13T02:46:41.665Z,4.60
2018-01-13T02:49:09.136Z,4.60
2018-01-13T02:51:36.608Z,4.60
2018-01-13T02:54:04.080Z,4.50
2018-01-13T02:56:32.318Z,4.50
2018-01-13T02:58:59.801Z,4.50
2018-01-13T03:01:27.261Z,4.50
2018-01-13T03:03:55.496Z,4.50
2018-01-13T03:06:22.973Z,4.50
2018-01-13T03:08:50.436Z,4.60
2018-01-13T03:11:17.919Z,4.60
2018-01-13T03:13:46.153Z,4.60
2018-01-13T03:16:13.629Z,4.60
2018-01-13T03:18:41.096Z,4.60
2018-01-13T03:21:08.567Z,4.60
2018-01-13T03:23:36.808Z,4.60
2018-01-13T03:26:04.288Z,4.50
2018-01-13T03:28:31.755Z,4.60
2018-01-13T03:30:59.997Z,4.60
2018-01-13T03:33:27.491Z,4.50
2018-01-13T03:35:55.729Z,4.60
2018-01-13T03:38:23.200Z,4.60
2018-01-13T03:40:50.664Z,4.60
2018-01-13T03:43:18.148Z,4.70
2018-01-13T03:45:46.388Z,4.60
2018-01-13T03:48:13.864Z,4.70
2018-01-13T03:50:41.335Z,4.60
2018-01-13T03:53:09.581Z,4.50
2018-01-13T03:55:37.049Z,4.50
2018-01-13T03:58:04.530Z,4.50
2018-01-13T04:00:32.760Z,4.50
2018-01-13T04:03:00.229Z,4.50
2018-01-13T04:05:27.708Z,4.50
2018-01-13T04:07:55.181Z,4.50
2018-01-13T04:10:22.681Z,4.50
2018-01-13T04:12:50.153Z,4.50
2018-01-13T04:15:17.637Z,4.40
2018-01-13T04:17:45.103Z,4.50
2018-01-13T04:20:12.576Z,4.50
2018-01-13T04:22:40.812Z,4.50
2018-01-13T04:25:08.280Z,4.50
2018-01-13T04:27:35.747Z,4.50
2018-01-13T04:30:03.464Z,4.60
2018-01-13T04:32:30.944Z,4.60
2018-01-13T04:34:58.404Z,4.60
2018-01-13T04:37:25.885Z,4.60
2018-01-13T04:39:53.356Z,4.50
2018-01-13T04:42:21.592Z,4.70
2018-01-13T04:44:49.068Z,4.70
2018-01-13T04:47:16.552Z,4.70
2018-01-13T04:49:44.785Z,4.70
2018-01-13T04:52:12.272Z,4.70
2018-01-13T04:54:39.751Z,4.70
2018-01-13T04:57:07.990Z,4.90
2018-01-13T04:59:35.456Z,4.90
2018-01-13T05:02:02.940Z,4.90
2018-01-13T05:04:31.175Z,5.00
2018-01-13T05:06:58.645Z,4.90
2018-01-13T05:09:26.121Z,5.00
2018-01-13T05:11:53.592Z,4.90
2018-01-13T05:14:21.835Z,5.00
2018-01-13T05:16:49.296Z,5.00
2018-01-13T05:19:16.779Z,4.90
2018-01-13T05:21:45.021Z,4.90
2018-01-13T05:24:12.500Z,4.80
2018-01-13T05:26:39.972Z,4.80
2018-01-13T05:29:08.216Z,4.90
2018-01-13T05:31:35.684Z,4.90
2018-01-13T05:34:03.160Z,4.90
2018-01-13T05:36:31.401Z,4.90
2018-01-13T05:38:58.896Z,4.90
2018-01-13T05:41:26.364Z,4.80
2018-01-13T05:43:54.607Z,4.80
2018-01-13T05:46:22.080Z,4.80
2018-01-13T05:48:49.548Z,4.80
2018-01-13T05:51:17.792Z,4.70
2018-01-13T05:53:45.256Z,4.70
2018-01-13T05:56:12.732Z,4.70
2018-01-13T05:58:40.199Z,4.70
2018-01-13T06:01:08.448Z,4.70
2018-01-13T06:03:35.918Z,4.70
2018-01-13T06:06:03.384Z,4.70
2018-01-13T06:08:30.858Z,4.80
2018-01-13T06:10:59.101Z,4.80
2018-01-13T06:13:26.576Z,4.80
2018-01-13T06:15:54.088Z,4.90
2018-01-13T06:18:21.561Z,4.90
2018-01-13T06:20:49.032Z,4.90
2018-01-13T06:23:16.512Z,5.00
2018-01-13T06:25:43.977Z,5.00
2018-01-13T06:28:11.448Z,5.00
2018-01-13T06:30:39.709Z,5.00
2018-01-13T06:33:07.180Z,5.00
2018-01-13T06:35:35.416Z,5.10
2018-01-13T06:38:02.887Z,5.10
2018-01-13T06:40:30.357Z,5.10
2018-01-13T06:42:57.840Z,5.10
2018-01-13T06:45:26.075Z,5.10
2018-01-13T06:47:53.549Z,5.00
2018-01-13T06:50:21.024Z,5.20
2018-01-13T06:52:49.264Z,5.10
2018-01-13T06:55:16.743Z,5.10
2018-01-13T06:57:44.212Z,5.10
2018-01-13T07:00:12.476Z,5.00
2018-01-13T07:02:39.946Z,5.00
2018-01-13T07:05:08.185Z,5.00
2018-01-13T07:07:35.658Z,5.00
2018-01-13T07:10:03.126Z,5.10
2018-01-13T07:12:30.599Z,5.10
2018-01-13T07:14:58.848Z,5.10
2018-01-13T07:17:26.317Z,5.10
2018-01-13T07:19:53.808Z,5.00
2018-01-13T07:22:21.282Z,5.00
2018-01-13T07:24:48.748Z,5.00
2018-01-13T07:27:16.236Z,5.10
2018-01-13T07:29:43.691Z,5.10
2018-01-13T07:32:11.428Z,5.10
2018-01-13T07:34:38.900Z,5.10
2018-01-13T07:37:06.376Z,5.10
2018-01-13T07:39:33.848Z,5.10
2018-01-13T07:42:01.326Z,5.10
2018-01-13T07:44:29.561Z,5.00
2018-01-13T07:46:57.036Z,5.00
2018-01-13T07:49:24.513Z,5.00
2018-01-13T07:51:52.800Z,5.00
2018-01-13T07:54:21.036Z,5.00
2018-01-13T07:56:48.512Z,5.00
2018-01-13T07:59:15.984Z,5.00
2018-01-13T08:01:44.235Z,4.90
2018-01-13T08:04:11.703Z,4.90
2018-01-13T08:06:39.173Z,4.90
2018-01-13T08:09:07.422Z,5.00
2018-01-13T08:11:34.889Z,5.00
2018-01-13T08:14:02.360Z,4.90
2018-01-13T08:16:29.832Z,4.90
2018-01-13T08:18:58.079Z,4.90
2018-01-13T08:21:25.549Z,4.90
2018-01-13T08:23:53.053Z,4.90
2018-01-13T08:26:20.520Z,4.90
2018-01-13T08:28:47.995Z,4.90
2018-01-13T08:31:15.472Z,4.90
2018-01-13T08:33:42.970Z,4.90
2018-01-13T08:36:10.416Z,4.90
2018-01-13T08:38:38.662Z,4.90
2018-01-13T08:41:06.132Z,4.90
2018-01-13T08:43:33.609Z,4.80
2018-01-13T08:46:01.856Z,4.80
2018-01-13T08:48:29.328Z,4.80
2018-01-13T08:50:56.794Z,4.90
2018-01-13T08:53:24.265Z,4.80
2018-01-13T08:55:52.504Z,4.70
2018-01-13T08:58:19.989Z,4.70
2018-01-13T09:00:48.221Z,4.80
2018-01-13T09:03:15.696Z,4.80
2018-01-13T09:05:43.169Z,4.80
2018-01-13T09:08:10.640Z,4.90
2018-01-13T09:10:38.113Z,4.90
2018-01-13T09:13:05.590Z,4.80
2018-01-13T09:15:33.056Z,4.70
2018-01-13T09:18:00.532Z,4.60
2018-01-13T09:20:28.000Z,4.60
2018-01-13T09:22:55.475Z,4.70
2018-01-13T09:25:22.954Z,4.70
2018-01-13T09:27:51.192Z,4.50
2018-01-13T09:30:18.668Z,4.40
2018-01-13T09:32:46.141Z,4.40
2018-01-13T09:35:14.385Z,4.40
2018-01-13T09:37:41.860Z,4.40
2018-01-13T09:40:09.340Z,4.30
2018-01-13T09:42:37.571Z,4.30
2018-01-13T09:45:05.059Z,4.30
2018-01-13T09:47:33.137Z,4.40
2018-01-13T09:50:00.608Z,4.50
2018-01-13T09:52:28.865Z,4.70
2018-01-13T09:54:56.332Z,4.70
2018-01-13T09:57:24.575Z,5.00
2018-01-13T09:59:52.044Z,4.90
2018-01-13T10:02:19.520Z,4.90
2018-01-13T10:04:47.001Z,4.90
2018-01-13T10:07:15.229Z,5.00
2018-01-13T10:09:42.705Z,5.00
2018-01-13T10:12:10.172Z,5.10
2018-01-13T10:14:37.649Z,5.10
2018-01-13T10:17:05.883Z,5.10
2018-01-13T10:19:33.364Z,5.10
2018-01-13T10:22:00.838Z,5.00
2018-01-13T10:24:29.077Z,5.00
2018-01-13T10:26:56.545Z,5.00
2018-01-13T10:29:24.019Z,5.10
2018-01-13T10:31:52.262Z,5.00
2018-01-13T10:34:19.729Z,5.00
2018-01-13T10:36:47.196Z,5.00
2018-01-13T10:39:14.669Z,5.00
2018-01-13T10:41:42.135Z,5.00
2018-01-13T10:44:10.373Z,5.10
2018-01-13T10:46:38.108Z,5.10
2018-01-13T10:49:05.587Z,5.20
2018-01-13T10:51:33.066Z,5.10
2018-01-13T10:54:00.533Z,5.10
2018-01-13T10:56:28.008Z,5.10
2018-01-13T10:58:56.247Z,5.20
2018-01-13T11:01:23.712Z,5.10
2018-01-13T11:03:52.001Z,5.20
2018-01-13T11:06:19.463Z,5.20
2018-01-13T11:08:46.937Z,5.20
2018-01-13T11:11:15.168Z,5.30
2018-01-13T11:13:42.642Z,5.30
2018-01-13T11:16:10.104Z,5.30
2018-01-13T11:18:37.582Z,5.30
2018-01-13T11:21:05.816Z,5.50
2018-01-13T11:23:33.310Z,5.40
2018-01-13T11:26:00.785Z,5.40
2018-01-13T11:28:29.016Z,5.50
2018-01-13T11:30:56.495Z,5.50
2018-01-13T11:33:23.964Z,5.50
2018-01-13T11:35:52.200Z,5.50
2018-01-13T11:38:19.669Z,5.50
2018-01-13T11:40:47.140Z,5.50
2018-01-13T11:43:14.616Z,5.60
2018-01-13T11:45:42.874Z,5.50
2018-01-13T11:48:10.352Z,5.50
2018-01-13T11:50:37.816Z,5.50
2018-01-13T11:53:06.052Z,5.50
2018-01-13T11:55:33.513Z,5.50
2018-01-13T11:58:00.984Z,5.50
2018-01-13T12:00:28.445Z,5.50
2018-01-13T12:02:55.928Z,5.50
2018-01-13T12:05:24.155Z,5.40
2018-01-13T12:07:51.637Z,5.40
2018-01-13T12:10:19.104Z,5.50
2018-01-13T12:12:46.576Z,5.40
2018-01-13T12:15:14.811Z,5.30
2018-01-13T12:17:42.300Z,5.40
2018-01-13T12:20:09.773Z,5.30
2018-01-13T12:22:38.020Z,5.30
2018-01-13T12:25:05.498Z,5.30
2018-01-13T12:27:33.731Z,5.30
2018-01-13T12:30:01.972Z,5.20
2018-01-13T12:32:29.872Z,5.20
2018-01-13T12:34:57.346Z,5.20
2018-01-13T12:37:24.812Z,5.20
2018-01-13T12:39:52.281Z,5.20
2018-01-13T12:42:19.748Z,5.30
2018-01-13T12:44:48.001Z,5.50
2018-01-13T12:47:15.464Z,5.50
2018-01-13T12:49:42.942Z,5.70
2018-01-13T12:52:11.185Z,6.10
2018-01-13T12:54:38.655Z,6.10
2018-01-13T12:57:06.181Z,6.20
2018-01-13T12:59:34.365Z,6.50
2018-01-13T13:02:02.121Z,6.50
2018-01-13T13:04:29.588Z,6.30
2018-01-13T13:06:57.064Z,6.40
2018-01-13T13:09:24.530Z,6.40
2018-01-13T13:11:52.004Z,6.50
2018-01-13T13:14:20.246Z,6.40
2018-01-13T13:16:47.720Z,6.40
2018-01-13T13:19:15.186Z,6.40
2018-01-13T13:21:42.664Z,6.30
2018-01-13T13:24:10.905Z,6.20
2018-01-13T13:26:38.387Z,6.20
2018-01-13T13:29:05.869Z,6.30
2018-01-13T13:31:34.088Z,6.20
2018-01-13T13:34:01.561Z,6.20
2018-01-13T13:36:29.036Z,6.20
2018-01-13T13:38:56.516Z,6.20
2018-01-13T13:41:24.753Z,5.90
2018-01-13T13:43:52.225Z,5.90
2018-01-13T13:46:19.688Z,5.80
2018-01-13T13:48:47.163Z,5.80
2018-01-13T13:51:15.396Z,5.60
2018-01-13T13:53:42.872Z,5.60
2018-01-13T13:56:10.340Z,5.50
2018-01-13T13:58:37.814Z,5.50
2018-01-13T14:01:28.368Z,5.50
2018-01-13T14:03:33.532Z,5.50
2018-01-13T14:06:00.996Z,5.60
2018-01-13T14:08:29.260Z,5.60
2018-01-13T14:10:56.722Z,5.60
2018-01-13T14:13:24.192Z,5.60
2018-01-13T14:15:51.668Z,5.60
2018-01-13T14:18:19.142Z,5.60
2018-01-13T14:20:46.614Z,5.70
2018-01-13T14:23:14.850Z,5.50
2018-01-13T14:25:43.096Z,5.40
2018-01-13T14:28:10.572Z,5.40
2018-01-13T14:30:38.036Z,5.40
2018-01-13T14:33:06.276Z,5.30
2018-01-13T14:35:33.739Z,5.20
2018-01-13T14:38:01.215Z,5.20
2018-01-13T14:40:28.672Z,5.20
2018-01-13T14:42:56.144Z,5.20
2018-01-13T14:45:24.372Z,5.10
2018-01-13T14:47:51.853Z,5.10
2018-01-13T14:50:19.324Z,5.00
2018-01-13T14:52:46.796Z,5.00
2018-01-13T14:55:15.044Z,5.00
2018-01-13T14:57:43.087Z,4.90
2018-01-13T15:00:10.552Z,4.90
2018-01-13T15:02:38.028Z,4.90
2018-01-13T15:05:05.497Z,4.90
2018-01-13T15:07:32.960Z,4.90
2018-01-13T15:10:00.436Z,4.80
2018-01-13T15:12:28.811Z,4.80
2018-01-13T15:14:56.272Z,4.80
2018-01-13T15:17:24.508Z,4.70
2018-01-13T15:19:51.975Z,4.70
2018-01-13T15:22:19.448Z,4.70
2018-01-13T15:24:46.912Z,4.70
2018-01-13T15:27:14.385Z,4.70
2018-01-13T15:29:42.613Z,4.60
2018-01-13T15:32:10.360Z,4.50
2018-01-13T15:34:37.829Z,4.50
2018-01-13T15:37:05.300Z,4.40
2018-01-13T15:39:32.769Z,4.50
2018-01-13T15:42:00.232Z,4.50
2018-01-13T15:44:27.729Z,4.50
2018-01-13T15:46:55.192Z,4.50
2018-01-13T15:49:22.656Z,4.40
2018-01-13T15:51:50.137Z,4.40
2018-01-13T15:54:17.605Z,4.30
2018-01-13T15:56:45.076Z,4.40
2018-01-13T15:59:12.548Z,4.20
2018-01-13T16:01:40.029Z,4.20
2018-01-13T16:04:08.264Z,4.10
2018-01-13T16:06:35.756Z,4.10
2018-01-13T16:09:04.002Z,3.90
2018-01-13T16:11:31.510Z,3.90
2018-01-13T16:13:59.031Z,4.00
2018-01-13T16:16:26.505Z,4.00
2018-01-13T16:18:53.983Z,3.80
2018-01-13T16:21:21.457Z,4.00
2018-01-13T16:23:48.933Z,4.00
2018-01-13T16:26:17.180Z,3.80
2018-01-13T16:28:44.644Z,3.80
2018-01-13T16:31:12.125Z,3.80
2018-01-13T16:33:39.597Z,3.60
2018-01-13T16:36:07.068Z,3.50
2018-01-13T16:38:34.588Z,3.60
2018-01-13T16:41:02.103Z,3.60
2018-01-13T16:43:29.614Z,3.50
2018-01-13T16:45:57.076Z,3.50
2018-01-13T16:48:24.547Z,3.50
2018-01-13T16:50:52.024Z,3.50
2018-01-13T16:53:19.505Z,3.40
2018-01-13T16:55:47.732Z,3.40
2018-01-13T16:58:15.208Z,3.40
2018-01-13T17:00:42.684Z,3.30
2018-01-13T17:03:10.157Z,3.20
2018-01-13T17:05:38.517Z,3.10
2018-01-13T17:08:06.004Z,3.10
2018-01-13T17:10:34.240Z,3.00
2018-01-13T17:13:01.763Z,3.00
2018-01-13T17:15:29.232Z,3.00
2018-01-13T17:17:56.700Z,3.00
2018-01-13T17:20:24.185Z,2.90
2018-01-13T17:22:51.652Z,2.90
2018-01-13T17:25:19.166Z,3.00
2018-01-13T17:27:46.632Z,3.00
2018-01-13T17:30:14.194Z,3.00
2018-01-13T17:32:41.705Z,2.90
2018-01-13T17:35:09.954Z,3.00
2018-01-13T17:37:37.425Z,3.00
2018-01-13T17:40:04.892Z,2.90
2018-01-13T17:42:33.174Z,2.90
2018-01-13T17:45:01.446Z,2.90
2018-01-13T17:47:29.742Z,2.80
2018-01-13T17:49:57.963Z,2.80
2018-01-13T17:52:25.463Z,2.80
2018-01-13T17:54:52.922Z,2.90
2018-01-13T17:57:21.218Z,2.80
2018-01-13T17:59:48.688Z,2.80
2018-01-13T18:02:16.155Z,2.80
2018-01-13T18:04:43.674Z,2.80
2018-01-13T18:07:12.064Z,2.80
2018-01-13T18:09:39.586Z,2.70
2018-01-13T18:12:07.052Z,2.70
2018-01-13T18:14:34.616Z,2.70
2018-01-13T18:17:02.136Z,2.60
2018-01-13T18:19:48.364Z,2.60
2018-01-13T18:22:15.829Z,2.70
2018-01-13T18:24:43.304Z,2.80
2018-01-13T18:27:11.546Z,2.80
2018-01-13T18:29:39.202Z,2.80
2018-01-13T18:32:06.677Z,2.80
2018-01-13T18:34:34.158Z,2.80
2018-01-13T18:37:02.399Z,3.00
2018-01-13T18:39:29.868Z,2.90
2018-01-13T18:41:57.344Z,3.00
2018-01-13T18:44:25.627Z,3.10
2018-01-13T18:46:53.914Z,3.20
2018-01-13T18:49:22.144Z,3.10
2018-01-13T18:51:49.883Z,3.10
2018-01-13T18:54:17.396Z,3.10
2018-01-13T18:56:44.905Z,3.10
2018-01-13T18:59:12.417Z,3.20
2018-01-13T19:01:40.405Z,3.30
2018-01-13T19:04:07.886Z,3.30
2018-01-13T19:06:35.360Z,3.50
2018-01-13T19:09:02.891Z,3.50
2018-01-13T19:11:30.399Z,3.50
2018-01-13T19:13:57.860Z,3.60
2018-01-13T19:16:25.336Z,3.70
2018-01-13T19:18:52.843Z,3.70
2018-01-13T19:21:20.614Z,3.70
2018-01-13T19:23:48.119Z,3.70
2018-01-13T19:26:15.639Z,3.80
2018-01-13T19:28:43.101Z,3.80
2018-01-13T19:31:10.575Z,3.80
2018-01-13T19:33:38.095Z,3.80
2018-01-13T19:36:05.624Z,3.80
2018-01-13T19:38:33.887Z,3.80
2018-01-13T19:41:01.400Z,3.80
2018-01-13T19:43:28.902Z,3.90
2018-01-13T19:45:56.415Z,3.90
2018-01-13T19:48:23.892Z,4.00
2018-01-13T19:50:51.406Z,3.90
2018-01-13T19:53:19.683Z,4.00
2018-01-13T19:55:47.988Z,4.10
2018-01-13T19:58:15.503Z,4.00
2018-01-13T20:00:42.969Z,4.10
2018-01-13T20:03:11.296Z,4.00
2018-01-13T20:05:39.581Z,4.10
2018-01-13T20:08:07.109Z,4.10
2018-01-13T20:10:34.623Z,4.10
2018-01-13T20:13:02.140Z,4.10
2018-01-13T20:15:29.665Z,4.20
2018-01-13T20:17:57.943Z,4.10
2018-01-13T20:20:26.227Z,4.20
2018-01-13T20:22:53.753Z,4.20
2018-01-13T20:25:21.273Z,4.20
2018-01-13T20:27:48.808Z,4.20
2018-01-13T20:30:16.315Z,4.20
2018-01-13T20:32:44.168Z,4.30
2018-01-13T20:35:11.674Z,4.20
2018-01-13T20:37:39.962Z,4.20
2018-01-13T20:40:08.245Z,4.30
2018-01-13T20:42:36.532Z,4.20
2018-01-13T20:45:03.998Z,4.20
2018-01-13T20:47:31.531Z,4.20
2018-01-13T20:49:59.820Z,4.20
2018-01-13T20:52:27.297Z,4.20
2018-01-13T20:54:54.813Z,4.20
2018-01-13T20:57:22.350Z,4.30
2018-01-13T20:59:49.872Z,4.30
2018-01-13T21:02:17.388Z,4.30
2018-01-13T21:04:44.910Z,4.30
2018-01-13T21:07:12.453Z,4.30
2018-01-13T21:09:39.968Z,4.30
2018-01-13T21:12:07.490Z,4.30
2018-01-13T21:14:35.010Z,4.30
2018-01-13T21:17:03.278Z,4.20
2018-01-13T21:19:31.572Z,4.20
2018-01-13T21:21:59.079Z,4.20
2018-01-13T21:24:26.573Z,4.30
2018-01-13T21:26:54.859Z,4.30
2018-01-13T21:29:23.136Z,4.20
2018-01-13T21:31:51.424Z,4.20
2018-01-13T21:34:18.939Z,4.20
2018-01-13T21:36:46.459Z,4.30
2018-01-13T21:39:13.967Z,4.20
2018-01-13T21:41:41.494Z,4.20
2018-01-13T21:44:09.007Z,4.20
2018-01-13T21:46:37.283Z,4.20
2018-01-13T21:49:05.564Z,4.20
2018-01-13T21:51:33.100Z,4.20
2018-01-13T21:54:00.564Z,4.10
2018-01-13T21:56:28.862Z,4.10
2018-01-13T21:58:57.131Z,4.10
2018-01-13T22:01:25.534Z,4.10
2018-01-13T22:03:53.056Z,4.10
2018-01-13T22:06:20.594Z,4.10
2018-01-13T22:08:48.091Z,4.10
2018-01-13T22:11:16.361Z,4.10
2018-01-13T22:13:44.647Z,4.00
2018-01-13T22:16:12.926Z,4.00
2018-01-13T22:18:41.194Z,4.10
2018-01-13T22:21:09.424Z,4.00
2018-01-13T22:23:37.025Z,4.00
2018-01-13T22:26:04.492Z,4.10
2018-01-13T22:28:32.770Z,4.10
2018-01-13T22:31:01.082Z,4.10
2018-01-13T22:33:28.599Z,4.10
2018-01-13T22:35:56.844Z,4.00
2018-01-13T22:38:24.359Z,4.00
2018-01-13T22:40:51.841Z,4.00
2018-01-13T22:43:19.359Z,4.10
2018-01-13T22:45:47.646Z,4.10
2018-01-13T22:48:15.872Z,4.10
2018-01-13T22:50:43.421Z,4.10
2018-01-13T22:53:10.884Z,4.00
2018-01-13T22:55:39.173Z,4.00
2018-01-13T22:58:06.696Z,4.00
2018-01-13T23:00:39.948Z,4.00
2018-01-13T23:03:07.472Z,4.00
2018-01-13T23:05:34.974Z,3.90
2018-01-13T23:08:03.506Z,4.00
2018-01-13T23:10:31.023Z,3.90
2018-01-13T23:12:59.259Z,3.90
2018-01-13T23:15:26.835Z,3.90
2018-01-13T23:17:54.360Z,3.90
2018-01-13T23:20:21.868Z,4.00
2018-01-13T23:22:50.096Z,3.90
2018-01-13T23:25:18.336Z,3.90
2018-01-13T23:27:45.809Z,3.90
2018-01-13T23:30:13.325Z,3.90
2018-01-13T23:32:40.822Z,3.90
2018-01-13T23:35:08.298Z,3.90
2018-01-13T23:37:35.807Z,3.90
2018-01-13T23:40:03.281Z,3.80
2018-01-13T23:42:31.562Z,3.80
2018-01-13T23:44:59.802Z,3.70
2018-01-13T23:47:27.306Z,3.70
2018-01-13T23:49:54.814Z,3.80
2018-01-13T23:52:22.280Z,3.80
2018-01-13T23:54:49.810Z,3.80
2018-01-13T23:57:17.272Z,3.80
2018-01-13T23:59:44.798Z,3.80
